createdAt,value
2022-08-03T00:01:40.470Z,19.51
2022-08-03T00:04:43.455Z,19.50
2022-08-03T00:07:45.809Z,19.38
2022-08-03T00:10:48.561Z,19.36
2022-08-03T00:13:50.880Z,19.32
2022-08-03T00:16:53.314Z,19.35
2022-08-03T00:19:55.645Z,19.36
2022-08-03T00:22:57.855Z,19.38
2022-08-03T00:26:00.829Z,19.44
2022-08-03T00:29:03.173Z,19.41
2022-08-03T00:32:05.597Z,19.34
2022-08-03T00:35:09.295Z,19.31
2022-08-03T00:38:14.552Z,19.44
2022-08-03T00:41:16.959Z,19.42
2022-08-03T00:44:19.389Z,19.41
2022-08-03T00:47:21.566Z,19.35
2022-08-03T00:50:25.398Z,19.36
2022-08-03T00:53:28.869Z,19.28
2022-08-03T00:56:30.814Z,19.27
2022-08-03T00:59:32.955Z,19.28
2022-08-03T01:02:35.516Z,19.35
2022-08-03T01:05:53.432Z,19.35
2022-08-03T01:09:08.697Z,19.32
2022-08-03T01:12:19.615Z,19.34
2022-08-03T01:16:06.370Z,19.27
2022-08-03T01:19:30.313Z,19.25
2022-08-03T01:23:10.346Z,19.20
2022-08-03T01:26:20.441Z,19.20
2022-08-03T01:29:41.160Z,19.18
2022-08-03T01:33:00.765Z,19.22
2022-08-03T01:36:07.706Z,19.22
2022-08-03T01:39:11.599Z,19.25
2022-08-03T01:42:15.415Z,19.18
2022-08-03T01:45:18.979Z,19.18
2022-08-03T01:48:22.505Z,19.18
2022-08-03T01:51:45.061Z,19.15
2022-08-03T01:54:51.548Z,19.06
2022-08-03T01:58:05.518Z,19.04
2022-08-03T02:01:10.539Z,19.01
2022-08-03T02:04:14.698Z,18.94
2022-08-03T02:07:17.608Z,18.90
2022-08-03T02:10:34.574Z,18.97
2022-08-03T02:13:38.924Z,18.96
2022-08-03T02:16:43.379Z,18.99
2022-08-03T02:19:46.968Z,18.87
2022-08-03T02:22:49.222Z,18.87
2022-08-03T02:26:01.897Z,18.96
2022-08-03T02:29:12.244Z,18.89
2022-08-03T02:32:17.935Z,18.86
2022-08-03T02:35:22.806Z,18.81
2022-08-03T02:38:31.862Z,18.81
2022-08-03T02:41:45.316Z,18.76
2022-08-03T02:44:50.320Z,18.70
2022-08-03T02:47:58.417Z,18.66
2022-08-03T02:51:03.064Z,18.61
2022-08-03T02:54:08.536Z,18.56
2022-08-03T02:57:12.635Z,18.49
2022-08-03T03:00:19.369Z,18.47
2022-08-03T03:03:31.882Z,18.43
2022-08-03T03:06:41.262Z,18.46
2022-08-03T03:09:46.001Z,18.46
2022-08-03T03:12:49.874Z,18.46
2022-08-03T03:16:16.990Z,18.46
2022-08-03T03:19:20.974Z,18.43
2022-08-03T03:22:24.545Z,18.45
2022-08-03T03:25:28.938Z,18.46
2022-08-03T03:28:31.974Z,18.40
2022-08-03T03:31:36.351Z,18.47
2022-08-03T03:34:39.449Z,18.46
2022-08-03T03:37:42.373Z,18.49
2022-08-03T03:40:44.571Z,18.50
2022-08-03T03:43:46.885Z,18.52
2022-08-03T03:46:51.486Z,18.50
2022-08-03T03:49:54.277Z,18.52
2022-08-03T03:52:56.368Z,18.53
2022-08-03T03:56:02.411Z,18.52
2022-08-03T03:59:05.430Z,18.47
2022-08-03T04:02:09.769Z,18.42
2022-08-03T04:05:31.046Z,18.40
2022-08-03T04:08:51.954Z,18.43
2022-08-03T04:11:58.806Z,18.49
2022-08-03T04:15:02.409Z,18.57
2022-08-03T04:18:06.355Z,18.59
2022-08-03T04:21:15.277Z,18.61
2022-08-03T04:24:20.905Z,18.59
2022-08-03T04:27:34.949Z,18.57
2022-08-03T04:30:38.790Z,18.63
2022-08-03T04:33:44.029Z,18.60
2022-08-03T04:36:50.617Z,18.66
2022-08-03T04:39:57.593Z,18.64
2022-08-03T04:43:00.879Z,18.67
2022-08-03T04:46:04.747Z,18.63
2022-08-03T04:49:07.450Z,18.67
2022-08-03T04:52:10.317Z,18.70
2022-08-03T04:55:12.643Z,18.74
2022-08-03T04:58:15.200Z,18.93
2022-08-03T05:01:17.931Z,19.17
2022-08-03T05:04:20.645Z,19.32
2022-08-03T05:07:25.159Z,19.41
2022-08-03T05:10:27.871Z,19.51
2022-08-03T05:13:29.950Z,19.55
2022-08-03T05:16:32.330Z,19.66
2022-08-03T05:19:34.928Z,19.69
2022-08-03T05:22:37.309Z,19.82
2022-08-03T05:25:39.514Z,19.85
2022-08-03T05:28:51.014Z,19.92
2022-08-03T05:31:53.560Z,19.95
2022-08-03T05:34:56.087Z,20.03
2022-08-03T05:37:58.148Z,20.05
2022-08-03T05:41:23.734Z,20.06
2022-08-03T05:44:25.721Z,20.05
2022-08-03T05:47:28.213Z,20.10
2022-08-03T05:50:30.204Z,20.09
2022-08-03T05:53:35.730Z,20.15
2022-08-03T05:56:38.554Z,20.25
2022-08-03T05:59:40.977Z,20.36
2022-08-03T06:02:57.316Z,20.34
2022-08-03T06:06:00.294Z,20.48
2022-08-03T06:09:02.769Z,20.76
2022-08-03T06:12:05.501Z,20.70
2022-08-03T06:15:08.299Z,20.94
2022-08-03T06:18:13.885Z,20.81
2022-08-03T06:21:16.509Z,21.11
2022-08-03T06:24:19.153Z,21.28
2022-08-03T06:27:36.753Z,21.73
2022-08-03T06:30:40.102Z,21.56
2022-08-03T06:34:30.651Z,21.39
2022-08-03T06:37:04.275Z,21.21
2022-08-03T06:40:06.682Z,21.35
2022-08-03T06:43:12.459Z,21.22
2022-08-03T06:46:14.852Z,21.37
2022-08-03T06:49:17.183Z,21.24
2022-08-03T06:52:37.744Z,21.43
2022-08-03T06:55:40.803Z,21.25
2022-08-03T06:58:44.602Z,21.15
2022-08-03T07:01:47.068Z,21.27
2022-08-03T07:04:49.578Z,21.83
2022-08-03T07:07:57.039Z,22.53
2022-08-03T07:10:59.278Z,22.57
2022-08-03T07:14:01.440Z,22.75
2022-08-03T07:17:04.523Z,22.91
2022-08-03T07:20:08.640Z,23.11
2022-08-03T07:23:11.583Z,22.99
2022-08-03T07:26:21.471Z,23.20
2022-08-03T07:29:23.560Z,23.06
2022-08-03T07:32:26.675Z,22.60
2022-08-03T07:35:28.739Z,23.06
2022-08-03T07:38:31.110Z,22.90
2022-08-03T07:41:33.127Z,22.32
2022-08-03T07:44:35.520Z,21.97
2022-08-03T07:47:37.409Z,22.27
2022-08-03T07:50:39.838Z,23.09
2022-08-03T07:53:47.178Z,23.05
2022-08-03T07:56:50.211Z,22.79
2022-08-03T07:59:57.179Z,22.90
2022-08-03T08:03:14.662Z,23.12
2022-08-03T08:06:17.965Z,23.36
2022-08-03T08:09:20.479Z,23.39
2022-08-03T08:12:23.740Z,23.16
2022-08-03T08:15:26.044Z,23.46
2022-08-03T08:18:30.847Z,23.93
2022-08-03T08:21:53.982Z,24.21
2022-08-03T08:24:55.509Z,24.58
2022-08-03T08:28:29.647Z,25.23
2022-08-03T08:31:19.976Z,24.68
2022-08-03T08:34:22.259Z,25.12
2022-08-03T08:37:24.249Z,24.79
2022-08-03T08:40:28.079Z,24.38
2022-08-03T08:43:30.208Z,24.34
2022-08-03T08:46:33.648Z,24.74
2022-08-03T08:49:37.230Z,24.42
2022-08-03T08:52:46.406Z,24.78
2022-08-03T08:55:59.365Z,24.30
2022-08-03T08:59:03.100Z,24.38
2022-08-03T09:02:05.859Z,24.78
2022-08-03T09:05:13.063Z,25.57
2022-08-03T09:08:15.114Z,25.11
2022-08-03T09:11:23.236Z,24.69
2022-08-03T09:15:00.903Z,25.49
2022-08-03T09:18:06.908Z,26.31
2022-08-03T09:21:34.187Z,26.69
2022-08-03T09:24:41.407Z,27.03
2022-08-03T09:27:45.828Z,27.13
2022-08-03T09:30:59.796Z,26.72
2022-08-03T09:34:10.925Z,26.68
2022-08-03T09:37:16.327Z,27.32
2022-08-03T09:40:35.444Z,27.63
2022-08-03T09:43:47.355Z,26.81
2022-08-03T09:46:50.972Z,27.57
2022-08-03T09:50:02.292Z,27.91
2022-08-03T09:53:04.514Z,27.40
2022-08-03T09:56:34.378Z,27.95
2022-08-03T09:59:31.232Z,28.09
2022-08-03T10:02:33.504Z,28.12
2022-08-03T10:05:35.532Z,27.81
2022-08-03T10:08:38.298Z,28.09
2022-08-03T10:11:42.699Z,28.73
2022-08-03T10:14:46.813Z,28.69
2022-08-03T10:17:49.420Z,28.84
2022-08-03T10:21:02.143Z,28.93
2022-08-03T10:24:09.501Z,28.34
2022-08-03T10:27:14.613Z,28.72
2022-08-03T10:30:17.198Z,28.88
2022-08-03T10:33:51.912Z,29.16
2022-08-03T10:36:49.272Z,29.10
2022-08-03T10:39:55.209Z,29.02
2022-08-03T10:43:03.586Z,28.63
2022-08-03T10:46:08.598Z,28.92
2022-08-03T10:49:15.591Z,28.80
2022-08-03T10:52:33.723Z,29.74
2022-08-03T10:56:05.638Z,29.60
2022-08-03T10:59:08.794Z,29.85
2022-08-03T11:02:13.863Z,30.23
2022-08-03T11:05:29.632Z,30.42
2022-08-03T11:08:35.035Z,29.75
2022-08-03T11:11:38.619Z,30.32
2022-08-03T11:14:48.461Z,30.39
2022-08-03T11:18:11.235Z,29.97
2022-08-03T11:21:18.579Z,29.98
2022-08-03T11:24:54.555Z,30.26
2022-08-03T11:28:35.828Z,30.43
2022-08-03T11:31:50.195Z,30.47
2022-08-03T11:35:11.473Z,30.97
2022-08-03T11:38:13.685Z,30.97
2022-08-03T11:41:42.739Z,30.79
2022-08-03T11:44:47.858Z,30.94
2022-08-03T11:47:53.932Z,30.60
2022-08-03T11:50:57.099Z,30.79
2022-08-03T11:54:04.177Z,31.26
2022-08-03T11:57:06.889Z,30.84
2022-08-03T12:00:29.664Z,30.83
2022-08-03T12:03:36.621Z,30.79
2022-08-03T12:06:55.844Z,31.17
2022-08-03T12:10:12.496Z,31.78
2022-08-03T12:14:43.925Z,31.71
2022-08-03T12:16:38.412Z,31.67
2022-08-03T12:19:44.126Z,32.21
2022-08-03T12:22:46.492Z,32.01
2022-08-03T12:25:49.530Z,31.18
2022-08-03T12:28:51.738Z,30.79
2022-08-03T12:31:53.986Z,31.61
2022-08-03T12:35:06.219Z,31.59
2022-08-03T12:38:08.422Z,31.07
2022-08-03T12:41:18.770Z,31.34
2022-08-03T12:44:34.667Z,31.17
2022-08-03T12:48:13.641Z,31.42
2022-08-03T12:51:16.316Z,31.38
2022-08-03T12:54:24.282Z,31.21
2022-08-03T12:57:40.988Z,30.80
2022-08-03T13:00:55.851Z,31.33
2022-08-03T13:03:57.816Z,31.14
2022-08-03T13:07:05.216Z,30.79
2022-08-03T13:10:09.688Z,30.62
2022-08-03T13:13:12.344Z,30.77
2022-08-03T13:16:19.026Z,30.00
2022-08-03T13:19:21.648Z,29.70
2022-08-03T13:22:27.230Z,29.58
2022-08-03T13:25:29.726Z,29.74
2022-08-03T13:28:31.694Z,30.60
2022-08-03T13:31:34.258Z,31.07
2022-08-03T13:34:37.453Z,30.83
2022-08-03T13:37:39.633Z,31.14
2022-08-03T13:40:41.993Z,31.57
2022-08-03T13:43:44.418Z,30.84
2022-08-03T13:46:48.689Z,30.25
2022-08-03T13:50:00.497Z,30.43
2022-08-03T13:53:04.252Z,29.85
2022-08-03T13:56:06.505Z,29.92
2022-08-03T13:59:08.435Z,29.89
2022-08-03T14:02:10.660Z,29.13
2022-08-03T14:05:12.814Z,28.70
2022-08-03T14:08:15.133Z,28.55
2022-08-03T14:11:18.670Z,28.35
2022-08-03T14:14:20.892Z,27.85
2022-08-03T14:17:23.205Z,27.50
2022-08-03T14:20:38.683Z,27.49
2022-08-03T14:23:49.492Z,27.34
2022-08-03T14:26:51.845Z,27.30
2022-08-03T14:29:53.921Z,27.20
2022-08-03T14:33:00.632Z,27.13
2022-08-03T14:36:03.006Z,27.03
2022-08-03T14:39:05.223Z,26.92
2022-08-03T14:42:08.732Z,27.04
2022-08-03T14:45:19.993Z,27.50
2022-08-03T14:50:29.393Z,28.01
2022-08-03T14:51:51.588Z,27.67
2022-08-03T14:54:56.106Z,27.27
2022-08-03T14:57:58.255Z,26.86
2022-08-03T15:01:00.572Z,26.61
2022-08-03T15:04:02.978Z,26.59
2022-08-03T15:07:05.371Z,26.58
2022-08-03T15:10:07.971Z,26.67
2022-08-03T15:13:11.280Z,26.61
2022-08-03T15:16:13.800Z,26.58
2022-08-03T15:20:02.292Z,26.51
2022-08-03T15:22:41.698Z,26.39
2022-08-03T15:26:32.397Z,26.41
2022-08-03T15:29:08.330Z,26.45
2022-08-03T15:32:10.781Z,26.47
2022-08-03T15:35:13.239Z,26.37
2022-08-03T15:38:15.467Z,26.34
2022-08-03T15:41:17.957Z,26.35
2022-08-03T15:44:20.447Z,26.24
2022-08-03T15:47:22.897Z,26.24
2022-08-03T15:50:25.577Z,26.25
2022-08-03T15:53:28.016Z,26.27
2022-08-03T15:56:30.425Z,26.24
2022-08-03T15:59:35.101Z,26.21
2022-08-03T16:02:37.394Z,26.20
2022-08-03T16:05:39.960Z,26.11
2022-08-03T16:08:42.247Z,26.08
2022-08-03T16:11:44.753Z,26.04
2022-08-03T16:14:52.761Z,26.09
2022-08-03T16:17:55.796Z,26.18
2022-08-03T16:20:59.976Z,26.24
2022-08-03T16:24:03.819Z,26.35
2022-08-03T16:27:37.208Z,26.58
2022-08-03T16:30:33.770Z,26.98
2022-08-03T16:33:36.601Z,27.09
2022-08-03T16:36:39.058Z,26.92
2022-08-03T16:39:43.285Z,26.78
2022-08-03T16:42:45.970Z,26.68
2022-08-03T16:45:48.502Z,26.62
2022-08-03T16:48:51.200Z,26.56
2022-08-03T16:51:54.721Z,26.49
2022-08-03T16:55:00.788Z,26.51
2022-08-03T16:58:14.085Z,26.48
2022-08-03T17:01:24.064Z,26.44
2022-08-03T17:04:28.907Z,26.37
2022-08-03T17:07:32.132Z,26.37
2022-08-03T17:10:34.272Z,26.37
2022-08-03T17:13:39.442Z,26.37
2022-08-03T17:16:52.637Z,26.24
2022-08-03T17:19:58.651Z,26.20
2022-08-03T17:23:19.212Z,26.09
2022-08-03T17:26:51.385Z,26.00
2022-08-03T17:30:01.464Z,25.91
2022-08-03T17:33:05.854Z,25.77
2022-08-03T17:36:41.766Z,25.73
2022-08-03T17:39:58.900Z,25.60
2022-08-03T17:44:13.284Z,25.47
2022-08-03T17:46:26.403Z,25.45
2022-08-03T17:49:29.930Z,25.40
2022-08-03T17:52:42.194Z,25.36
2022-08-03T17:56:40.860Z,25.42
2022-08-03T17:59:54.068Z,25.36
2022-08-03T18:03:21.573Z,25.29
2022-08-03T18:06:28.820Z,25.19
2022-08-03T18:10:03.614Z,25.22
2022-08-03T18:13:21.650Z,25.02
2022-08-03T18:16:39.397Z,24.82
2022-08-03T18:20:02.049Z,24.72
2022-08-03T18:23:07.492Z,24.62
2022-08-03T18:26:12.499Z,24.62
2022-08-03T18:29:15.596Z,24.42
2022-08-03T18:32:20.036Z,24.38
2022-08-03T18:35:24.789Z,24.28
2022-08-03T18:38:33.334Z,24.14
2022-08-03T18:41:37.660Z,24.11
2022-08-03T18:44:54.204Z,24.07
2022-08-03T18:48:07.519Z,24.00
2022-08-03T18:51:28.400Z,23.96
2022-08-03T18:54:53.438Z,23.84
2022-08-03T18:58:22.220Z,23.62
2022-08-03T19:02:00.946Z,23.48
2022-08-03T19:05:05.193Z,23.29
2022-08-03T19:08:18.477Z,23.18
2022-08-03T19:12:14.065Z,23.09
2022-08-03T19:15:00.151Z,23.19
2022-08-03T19:21:31.012Z,23.05
2022-08-03T19:24:36.101Z,23.05
2022-08-03T19:27:39.712Z,22.99
2022-08-03T19:30:53.571Z,22.95
2022-08-03T19:33:59.777Z,22.87
2022-08-03T19:37:03.914Z,22.65
2022-08-03T19:40:10.460Z,22.60
2022-08-03T19:43:32.941Z,22.54
2022-08-03T19:47:02.150Z,22.48
2022-08-03T19:50:14.388Z,22.45
2022-08-03T19:53:17.319Z,22.37
2022-08-03T19:56:25.547Z,22.37
2022-08-03T19:59:31.292Z,22.27
2022-08-03T20:02:35.036Z,22.13
2022-08-03T20:05:45.061Z,22.03
2022-08-03T20:08:56.644Z,21.94
2022-08-03T20:12:01.035Z,22.00
2022-08-03T20:15:05.853Z,22.07
2022-08-03T20:18:16.499Z,21.97
2022-08-03T20:21:24.844Z,22.00
2022-08-03T20:24:28.743Z,21.85
2022-08-03T20:27:33.562Z,21.93
2022-08-03T20:30:57.035Z,21.76
2022-08-03T20:34:00.663Z,21.82
2022-08-03T20:37:04.659Z,21.88
2022-08-03T20:40:07.401Z,21.70
2022-08-03T20:43:10.014Z,21.79
2022-08-03T20:46:29.544Z,21.73
2022-08-03T20:49:45.726Z,21.66
2022-08-03T20:52:51.260Z,21.66
2022-08-03T20:56:02.255Z,21.62
2022-08-03T20:59:07.487Z,21.62
2022-08-03T21:02:28.962Z,21.56
2022-08-03T21:05:48.242Z,21.55
2022-08-03T21:09:00.584Z,21.52
2022-08-03T21:12:13.418Z,21.49
2022-08-03T21:13:09.604Z,23.05
2022-08-03T21:16:06.099Z,21.58
2022-08-03T21:18:52.276Z,21.46
2022-08-03T21:21:56.900Z,21.48
2022-08-03T21:25:05.384Z,21.48
2022-08-03T21:28:09.628Z,21.31
2022-08-03T21:31:25.368Z,21.39
2022-08-03T21:34:30.881Z,21.32
2022-08-03T21:37:34.740Z,21.29
2022-08-03T21:40:39.846Z,21.25
2022-08-03T21:43:45.334Z,21.24
2022-08-03T21:46:49.954Z,21.19
2022-08-03T21:50:06.619Z,21.17
2022-08-03T21:53:13.981Z,21.08
2022-08-03T21:56:20.253Z,21.08
2022-08-03T21:59:25.167Z,21.19
2022-08-03T22:02:32.031Z,21.15
2022-08-03T22:05:43.414Z,21.14
2022-08-03T22:08:51.453Z,21.09
2022-08-03T22:11:54.339Z,21.08
2022-08-03T22:15:01.042Z,21.14
2022-08-03T22:18:04.419Z,21.12
2022-08-03T22:21:09.883Z,21.05
2022-08-03T22:24:12.121Z,21.01
2022-08-03T22:27:33.312Z,20.94
2022-08-03T22:30:36.066Z,20.87
2022-08-03T22:33:40.995Z,20.98
2022-08-03T22:36:43.051Z,20.87
2022-08-03T22:39:45.847Z,20.84
2022-08-03T22:42:50.634Z,20.88
2022-08-03T22:46:10.477Z,20.91
2022-08-03T22:49:16.673Z,20.90
2022-08-03T22:52:20.515Z,20.78
2022-08-03T22:55:25.058Z,20.78
2022-08-03T22:58:28.407Z,20.71
2022-08-03T23:01:41.202Z,20.67
2022-08-03T23:04:45.477Z,20.70
2022-08-03T23:07:50.304Z,20.71
2022-08-03T23:10:56.351Z,20.70
2022-08-03T23:13:59.787Z,20.77
2022-08-03T23:17:04.408Z,20.76
2022-08-03T23:20:09.106Z,20.71
2022-08-03T23:23:11.177Z,20.83
2022-08-03T23:26:16.388Z,20.73
2022-08-03T23:29:20.881Z,20.70
2022-08-03T23:32:28.297Z,20.74
2022-08-03T23:36:28.891Z,20.66
2022-08-03T23:39:12.881Z,20.63
2022-08-03T23:42:18.198Z,20.58
2022-08-03T23:45:21.604Z,20.58
2022-08-03T23:48:25.901Z,20.60
2022-08-03T23:51:45.477Z,20.53
2022-08-03T23:55:24.646Z,20.51
2022-08-03T23:58:32.547Z,20.44
